Date,TemperatureHighF,TemperatureAvgF,TemperatureLowF,DewpointHighF,DewpointAvgF,DewpointLowF,HumidityHigh,HumidityAvg,HumidityLow,PressureMaxIn,PressureMinIn,WindSpeedMaxMPH,WindSpeedAvgMPH,GustSpeedMaxMPH,PrecipitationSumIn
2013-1-1,64,54,42,60,45,28,88,70,44,31.45,31.11,16,6,31,0.20
2013-1-2,42,40,37,30,23,18,63,52,42,31.54,31.36,15,6,31,0.00
2013-1-3,49,42,36,26,19,7,57,41,20,31.66,31.46,14,4,31,0.00
2013-1-4,48,44,41,31,23,19,64,42,35,31.74,31.51,13,4,31,0.00
2013-1-5,47,43,39,40,36,30,89,74,60,31.61,31.40,8,2,31,0.24
2013-1-6,56,42,32,44,32,24,90,70,32,31.60,31.40,13,2,31,0.00
2013-1-7,60,46,29,34,27,15,86,52,21,31.54,31.21,11,1,31,0.00
2013-1-8,66,58,49,62,50,31,86,77,47,31.27,30.93,14,2,31,0.20
2013-1-9,71,67,62,65,62,0,87,85,75,31.24,30.97,18,3,31,2.83
2013-1-10,67,60,52,58,36,17,88,46,16,31.25,31.14,11,2,18,0.00
2013-1-11,72,60,46,61,46,34,87,63,34,31.25,31.00,13,3,13,0.00
2013-1-12,74,70,48,69,61,35,85,72,49,31.07,30.81,21,7,21,0.00
2013-1-13,52,43,38,39,25,15,85,50,28,31.39,31.00,23,9,23,0.20
2013-1-14,49,41,35,26,21,17,62,46,34,31.46,31.26,15,6,23,0.00
2013-1-15,42,37,35,33,30,25,88,77,51,31.43,31.23,17,6,23,0.08
2013-1-16,51,42,31,28,5,-14,68,27,8,31.58,31.33,16,5,23,0.00
2013-1-17,64,46,29,24,12,-6,60,30,7,31.70,31.46,17,3,18,0.00
2013-1-18,64,49,32,34,17,-5,83,36,7,31.75,31.47,11,2,18,0.00
2013-1-19,69,54,39,46,27,9,81,43,11,31.59,31.28,10,2,18,0.00
2013-1-20,52,51,51,44,44,44,78,77,76,31.40,31.38,2,0,18,0.00
2013-1-21,73,60,44,52,33,0,88,42,16,31.52,31.23,10,1,11,0.00
2013-1-22,73,58,43,44,33,20,82,46,16,31.52,31.31,11,2,11,0.00
2013-1-23,74,60,46,56,43,30,87,60,23,31.53,31.33,13,2,13,0.00
2013-1-24,80,70,61,58,46,0,82,48,21,31.50,31.22,13,5,13,0.00
2013-1-25,79,68,61,58,49,33,82,54,22,31.33,31.17,13,4,13,0.00
2013-1-26,78,66,56,58,46,28,84,55,17,31.37,31.18,12,3,13,0.00
2013-1-27,78,68,59,62,53,42,84,62,30,31.31,31.15,16,6,16,0.00
2013-1-28,81,73,70,62,53,36,73,52,22,31.24,31.08,17,8,17,0.00
2013-1-29,79,71,58,64,54,0,80,56,31,31.10,30.71,25,8,25,0.00
2013-1-30,62,52,35,33,-1,-11,50,12,7,31.48,30.96,26,8,26,0.00
2013-1-31,68,50,34,21,7,-9,49,22,6,31.53,31.31,13,2,26,0.00
2013-2-1,71,57,43,32,16,-3,58,25,6,31.59,31.33,13,3,26,0.00
2013-2-2,79,60,45,44,31,8,83,41,8,31.47,31.26,11,2,26,0.00
2013-2-3,72,60,47,38,14,-4,50,22,6,31.53,31.18,12,3,26,0.00
2013-2-4,75,63,54,59,44,17,82,51,20,31.24,30.96,9,2,26,0.00
2013-2-5,79,68,62,62,51,30,84,60,18,31.19,31.02,8,1,26,0.00
2013-2-6,71,66,59,64,57,44,85,75,43,31.20,31.02,14,2,26,0.59
2013-2-7,70,63,60,58,51,41,84,68,41,31.22,31.03,10,1,26,0.00
2013-2-8,70,58,50,41,30,15,66,39,14,31.39,31.18,14,4,26,0.00
2013-2-9,70,60,49,61,48,39,82,65,46,31.33,30.97,16,5,26,0.00
2013-2-10,73,64,56,64,36,-1,83,43,7,31.19,30.91,23,4,26,0.39
2013-2-11,60,54,50,50,40,27,85,62,30,31.24,31.13,14,5,26,0.24
2013-2-12,68,59,52,59,48,33,86,71,33,31.19,30.98,16,4,26,0.04
2013-2-13,60,50,41,33,22,0,57,34,16,31.53,31.17,16,6,26,0.00
2013-2-14,68,51,33,40,18,-7,89,41,6,31.37,31.16,8,1,16,0.00
2013-2-15,65,52,41,36,20,-1,76,36,8,31.59,31.24,13,4,16,0.00
2013-2-16,64,54,44,16,2,-11,32,14,7,31.64,31.37,13,3,16,0.00
2013-2-17,72,57,43,34,21,-3,63,30,6,31.49,31.16,16,5,16,0.00
2013-2-18,77,66,55,55,41,10,61,41,14,31.28,30.97,22,6,22,0.63
2013-2-19,70,56,46,24,11,-5,39,19,6,31.45,31.23,13,3,22,0.00
2013-2-20,63,56,51,57,34,9,84,49,17,31.32,30.90,23,5,23,0.08
2013-2-21,80,69,54,67,36,0,85,42,6,31.10,30.78,20,6,23,0.04
2013-2-22,65,54,48,33,24,16,50,32,19,31.24,31.02,14,5,23,0.00
2013-2-23,70,52,41,31,19,7,49,29,10,31.25,31.05,11,3,23,0.00
2013-2-24,73,57,40,39,31,12,75,41,12,31.20,30.80,15,4,23,0.00
2013-2-25,72,60,46,59,21,-9,86,35,6,31.06,30.71,29,10,29,0.00
2013-2-26,65,52,41,18,8,-6,32,19,6,31.17,31.00,18,6,29,0.00
2013-2-27,65,52,42,37,11,-8,62,24,7,31.42,31.08,22,6,29,0.00
2013-2-28,60,47,40,15,4,-7,34,18,8,31.54,31.29,16,6,29,0.00
2013-3-1,67,49,33,20,6,-10,54,23,6,31.79,31.25,14,3,29,0.00
2013-3-2,58,46,35,22,6,-12,55,23,7,31.62,31.40,25,7,25,0.00
2013-3-3,71,52,32,38,12,-9,52,24,6,31.53,31.14,15,5,25,0.00
2013-3-4,82,66,55,52,37,12,67,41,9,31.19,30.86,17,7,25,0.00
2013-3-5,66,58,44,53,13,-13,66,24,6,31.54,30.94,24,9,25,0.00
2013-3-6,67,50,37,27,-2,-12,46,13,6,31.64,31.34,13,3,25,0.00
2013-3-7,74,57,43,41,28,6,84,41,8,31.47,31.22,15,4,25,0.00
2013-3-8,73,62,52,51,44,37,79,54,30,31.37,31.16,19,5,25,0.00
2013-3-9,76,68,62,58,50,41,77,54,29,31.23,30.88,22,8,25,0.00
2013-3-10,70,61,50,63,34,3,84,45,9,31.29,30.85,21,7,25,0.51
2013-3-11,63,51,42,23,5,-11,43,19,6,31.36,31.16,20,6,25,0.00
2013-3-12,76,55,32,28,10,-7,71,23,5,31.46,31.19,10,2,25,0.00
2013-3-13,74,58,41,38,16,-5,80,29,5,31.63,31.39,11,2,25,0.00
2013-3-14,78,63,43,42,22,0,85,27,6,31.83,31.34,13,4,25,0.00
2013-3-15,80,63,50,49,31,3,84,39,7,31.46,31.16,13,4,13,0.00
2013-3-16,82,68,56,55,41,17,83,46,10,31.24,30.93,17,7,17,0.00
2013-3-17,85,71,62,60,48,28,79,50,15,31.05,30.80,14,6,17,0.00
2013-3-18,90,75,64,61,38,8,79,36,5,31.12,30.84,16,5,17,0.00
2013-3-19,84,68,53,54,36,24,62,34,13,31.20,30.97,15,4,17,0.00
2013-3-20,74,62,53,55,30,-2,81,42,6,31.45,31.12,16,4,17,0.43
2013-3-21,72,62,50,55,39,0,82,47,20,31.26,30.82,17,6,17,0.00
2013-3-22,84,74,64,63,50,0,75,46,21,30.97,30.77,12,4,17,0.00
2013-3-23,72,62,54,54,45,36,80,56,34,30.98,30.75,12,3,12,0.00
2013-3-24,61,53,44,55,17,-7,82,31,8,31.39,30.82,30,11,30,0.00
2013-3-25,61,47,36,16,3,-13,38,19,6,31.61,31.31,17,5,30,0.00
2013-3-26,64,47,32,14,0,-12,46,17,6,31.72,31.43,12,1,30,0.00
2013-3-27,72,55,36,33,15,-4,64,26,6,31.59,31.28,18,4,18,0.00
2013-3-28,74,64,54,45,37,0,59,40,24,31.43,31.25,16,4,18,0.00
2013-3-29,76,66,56,57,42,32,83,48,21,31.40,31.19,14,4,16,0.00
2013-3-30,84,71,63,60,45,25,82,48,13,31.31,31.06,14,4,16,0.00
2013-3-31,85,71,63,56,48,30,74,47,16,31.17,30.99,20,3,20,0.00
2013-4-1,65,64,62,59,58,54,83,80,73,31.22,31.10,5,0,20,0.00
2013-4-15,84,78,64,60,49,0,83,40,24,31.40,30.77,15,7,28,0.00
2013-4-16,87,76,69,67,56,40,80,53,21,31.11,30.97,16,6,28,0.00
2013-4-17,84,77,74,70,61,44,81,61,29,31.11,30.86,18,7,28,0.00
2013-4-18,79,66,52,73,52,24,86,64,34,31.26,30.83,23,9,28,0.35
2013-4-19,66,54,42,27,11,-7,54,23,7,31.48,31.20,22,7,28,0.00
2013-4-20,73,55,37,33,16,-7,70,29,6,31.48,31.17,16,3,28,0.00
2013-4-21,80,61,46,46,34,19,78,42,14,31.36,31.16,11,2,28,0.00
2013-4-22,82,65,51,58,44,0,85,55,15,31.32,31.04,17,3,28,0.00
2013-4-23,83,70,53,62,49,32,80,52,23,31.25,30.98,18,5,18,0.00
2013-4-24,70,55,45,39,25,8,71,36,12,31.44,31.19,24,8,24,0.00
2013-4-25,76,63,55,34,22,2,37,23,6,31.48,31.27,13,3,24,0.00
2013-4-26,84,73,64,62,49,34,83,47,22,31.37,31.17,16,6,24,0.00
2013-4-27,83,72,67,66,59,42,82,67,28,31.27,31.11,14,3,24,0.31
2013-4-28,83,72,65,63,48,27,84,50,16,31.23,31.02,12,2,24,0.16
2013-4-29,85,71,65,67,54,29,84,63,17,31.15,30.95,14,1,24,0.08
2013-4-30,86,74,66,67,52,27,84,54,14,31.05,30.84,10,2,24,0.00
2013-5-1,88,75,67,64,50,29,81,48,14,31.10,30.92,11,1,24,0.00
2013-5-2,73,61,47,61,42,26,75,51,32,31.48,31.05,25,10,25,0.00
2013-5-3,69,54,44,27,9,-7,45,21,6,31.47,31.19,26,11,26,0.00
2013-5-4,84,70,44,25,8,-3,38,10,5,31.41,30.99,15,4,26,0.00
2013-5-5,75,61,49,30,18,3,40,21,7,31.32,31.13,18,5,18,0.00
2013-5-6,79,63,45,40,24,4,77,30,6,31.31,31.13,9,1,18,0.00
2013-5-7,87,70,51,46,27,5,73,29,6,31.27,31.08,11,2,18,0.00
2013-5-8,85,72,60,56,40,11,83,41,7,31.23,31.06,15,4,18,0.00
2013-5-9,81,73,66,68,59,48,80,62,34,31.19,30.98,15,4,18,0.00
2013-5-10,81,73,64,68,55,36,83,58,24,31.22,30.97,18,3,18,1.26
2013-5-11,84,72,63,61,44,22,82,44,12,31.26,31.13,16,4,18,0.00
2013-5-12,82,70,60,40,29,11,46,24,8,31.36,31.20,11,3,18,0.00
2013-5-13,85,75,64,43,27,0,44,19,8,31.55,31.25,9,3,18,0.00
2013-5-14,85,72,61,63,47,28,83,48,16,31.40,31.17,14,4,14,0.00
2013-5-15,82,74,68,66,56,0,79,57,33,31.29,31.03,15,6,16,0.00
2013-5-16,85,76,70,67,56,44,81,54,26,31.12,30.91,16,6,16,0.12
2013-5-17,90,79,73,67,54,43,77,46,22,31.11,30.96,15,5,16,0.00
2013-5-18,93,81,73,64,50,28,69,41,11,31.12,30.97,14,6,16,0.00
2013-5-19,91,80,74,63,51,33,69,42,15,31.08,30.89,18,7,18,0.00
2013-5-20,93,81,76,65,54,38,69,42,18,31.06,30.86,18,6,18,0.00
2013-5-21,91,80,71,68,55,39,75,45,19,31.06,30.83,16,5,18,0.00
2013-5-22,94,78,68,65,54,39,81,49,19,31.12,30.93,12,2,18,0.00
2013-5-23,92,81,73,69,56,38,78,47,17,31.21,31.02,14,4,18,0.00
2013-5-24,90,81,75,70,56,37,77,48,18,31.27,31.15,15,4,18,0.00
2013-5-25,86,78,74,70,62,48,79,62,31,31.32,31.16,14,2,18,0.00
2013-5-26,92,81,74,70,52,30,78,45,13,31.25,31.11,15,5,18,0.00
2013-5-27,94,80,72,70,51,25,80,44,10,31.23,31.00,15,5,18,0.00
2013-5-28,92,80,72,67,52,34,79,45,15,31.15,30.95,19,6,19,0.00
2013-5-29,88,79,74,66,57,43,74,49,24,31.09,30.90,18,7,19,0.00
2013-5-30,93,82,75,68,56,38,74,47,18,31.05,30.89,19,6,19,0.00
2013-5-31,96,84,77,70,55,34,75,43,14,31.07,30.91,14,6,19,0.00
2013-6-1,97,85,78,67,53,32,67,39,12,31.09,30.93,15,5,19,0.00
2013-6-2,87,78,70,71,58,35,80,57,18,31.20,31.02,14,3,19,4.02
2013-6-3,94,79,67,65,46,20,82,41,9,31.18,30.94,10,1,19,0.00
2013-6-4,92,81,71,70,51,28,81,43,13,31.10,30.92,13,2,19,0.00
2013-6-5,94,82,72,73,54,30,81,46,12,31.09,30.86,10,2,19,0.00
2013-6-6,96,82,74,75,51,28,81,41,10,31.09,30.84,18,2,19,0.00
2013-6-7,88,77,68,65,43,11,80,38,7,31.16,30.99,14,3,19,0.00
2013-6-8,93,78,65,61,45,28,67,35,12,31.14,30.94,13,2,19,0.00
2013-6-9,89,78,74,71,64,48,79,62,31,31.16,30.99,14,1,19,0.94
2013-6-10,92,79,74,72,64,43,81,66,22,31.17,31.09,5,0,19,0.00